Ncc Najd — HZAK — position and weather

sailwx.info

Track history (hours):
 
Tides and Currents Weather Stations Pressure Air Temp Water Temp Dewpoint Dewpoint Depression Visibility Wind Speed Wind Dir Waves Ship Positions

Ncc Najd

Last reported at 2017-Jul-22 16:30 UTC. Time now 2017-Jul-22 16:38 UTC.
Position N 01°11' E 103°42'.

Length 183 m; draft 8 m.

Type: Tanker. MMSI: 403579000.

Date/timePositionNaut miles runAvg speedWind from/ knotsBaromVisibWave heightAir tempDewpointWater temp
2017-Jul-22 16:30N 01°11' E 103°42'1 2.0
2017-Jul-22 16:00N 01°11' E 103°41'4 8.3
2017-Jul-22 15:30N 01°09' E 103°44'612.2
2017-Jul-22 15:00N 01°11' E 103°49'9 8.9
2017-Jul-22 14:00N 01°15' E 103°58'5 9.5
2017-Jul-22 13:28N 01°16' E 104°03'610.8
2017-Jul-22 12:56N 01°17' E 104°08'  
2017-Jul-18 02:15N 22°29' E 119°49'415.8
2017-Jul-18 01:58N 22°33' E 119°50'815.8
2017-Jul-18 01:26N 22°42' E 119°50'49012.8
2017-Jul-16 11:04N 30°31' E 122°28'215.8
2017-Jul-16 10:57N 30°31' E 122°27'1314.9
2017-Jul-16 10:05N 30°33' E 122°11'315.5
2017-Jul-16 09:55N 30°32' E 122°09'615.0
2017-Jul-16 09:30N 30°31' E 122°02'813.9
2017-Jul-16 08:56N 30°30' E 121°53'613.4
2017-Jul-16 08:28N 30°29' E 121°45'611.7
2017-Jul-16 07:59N 30°29' E 121°39'5 9.5
2017-Jul-16 07:29N 30°30' E 121°34'4 8.3
2017-Jul-16 07:00N 30°31' E 121°29'4 7.9
2017-Jul-16 06:30N 30°33' E 121°25'14 0.4
2017-Jul-14 20:12N 30°46' E 121°27'0 0.0
2017-Jul-14 06:14N 30°46' E 121°27'0 0.4
2017-Jul-14 05:53N 30°46' E 121°27'2 3.8
2017-Jul-14 05:21N 30°44' E 121°27'3 8.4
2017-Jul-14 05:00N 30°41' E 121°28'7 1.3
2017-Jul-13 23:25N 30°38' E 121°21'0 0.0
2017-Jul-13 22:37N 30°38' E 121°21'0 0.0
2017-Jul-13 22:28N 30°38' E 121°21'0 0.0
2017-Jul-13 21:52N 30°38' E 121°21'0 0.0
2017-Jul-13 21:22N 30°37' E 121°21'0 0.0
2017-Jul-13 20:58N 30°37' E 121°21'0 0.0
2017-Jul-13 20:28N 30°37' E 121°21'0 0.4
2017-Jul-13 19:58N 30°37' E 121°21'0 0.1
2017-Jul-13 19:28N 30°37' E 121°21'0 0.0
2017-Jul-13 18:58N 30°37' E 121°21'0 0.0
2017-Jul-13 18:25N 30°37' E 121°21'0 0.1
2017-Jul-13 17:58N 30°37' E 121°21'0 0.0
2017-Jul-13 17:28N 30°37' E 121°21'0 0.0
2017-Jul-13 16:58N 30°37' E 121°21'0 0.0
2017-Jul-13 16:28N 30°37' E 121°21'0 0.1
2017-Jul-13 15:58N 30°37' E 121°21'0 0.0
2017-Jul-13 15:28N 30°37' E 121°21'0 0.1
2017-Jul-13 14:58N 30°37' E 121°21'0 0.1
2017-Jul-13 14:28N 30°37' E 121°21'0 0.2
2017-Jul-13 13:58N 30°38' E 121°21'0 0.0
2017-Jul-13 09:58N 30°37' E 121°21'  
Track history (hours):
 
Tides and Currents Weather Stations Pressure Air Temp Water Temp Dewpoint Dewpoint Depression Visibility Wind Speed Wind Dir Waves Ship Positions

Ncc Najd

Last reported at 2017-Jul-22 16:30 UTC. Time now 2017-Jul-22 16:38 UTC.
Position N 01°11' E 103°42'.

Length 183 m; draft 8 m.

Type: Tanker. MMSI: 403579000.

Date/timePositionNaut miles runAvg speedWind from/ knotsBaromVisibWave heightAir tempDewpointWater temp
2017-Jul-22 16:30N 01°11' E 103°42'1 2.0
2017-Jul-22 16:00N 01°11' E 103°41'4 8.3
2017-Jul-22 15:30N 01°09' E 103°44'612.2
2017-Jul-22 15:00N 01°11' E 103°49'9 8.9
2017-Jul-22 14:00N 01°15' E 103°58'5 9.5
2017-Jul-22 13:28N 01°16' E 104°03'610.8
2017-Jul-22 12:56N 01°17' E 104°08'  
2017-Jul-18 02:15N 22°29' E 119°49'415.8
2017-Jul-18 01:58N 22°33' E 119°50'815.8
2017-Jul-18 01:26N 22°42' E 119°50'49012.8
2017-Jul-16 11:04N 30°31' E 122°28'215.8
2017-Jul-16 10:57N 30°31' E 122°27'1314.9
2017-Jul-16 10:05N 30°33' E 122°11'315.5
2017-Jul-16 09:55N 30°32' E 122°09'615.0
2017-Jul-16 09:30N 30°31' E 122°02'813.9
2017-Jul-16 08:56N 30°30' E 121°53'613.4
2017-Jul-16 08:28N 30°29' E 121°45'611.7
2017-Jul-16 07:59N 30°29' E 121°39'5 9.5
2017-Jul-16 07:29N 30°30' E 121°34'4 8.3
2017-Jul-16 07:00N 30°31' E 121°29'4 7.9
2017-Jul-16 06:30N 30°33' E 121°25'14 0.4
2017-Jul-14 20:12N 30°46' E 121°27'0 0.0
2017-Jul-14 06:14N 30°46' E 121°27'0 0.4
2017-Jul-14 05:53N 30°46' E 121°27'2 3.8
2017-Jul-14 05:21N 30°44' E 121°27'3 8.4
2017-Jul-14 05:00N 30°41' E 121°28'7 1.3
2017-Jul-13 23:25N 30°38' E 121°21'0 0.0
2017-Jul-13 22:37N 30°38' E 121°21'0 0.0
2017-Jul-13 22:28N 30°38' E 121°21'0 0.0
2017-Jul-13 21:52N 30°38' E 121°21'0 0.0
2017-Jul-13 21:22N 30°37' E 121°21'0 0.0
2017-Jul-13 20:58N 30°37' E 121°21'0 0.0
2017-Jul-13 20:28N 30°37' E 121°21'0 0.4
2017-Jul-13 19:58N 30°37' E 121°21'0 0.1
2017-Jul-13 19:28N 30°37' E 121°21'0 0.0
2017-Jul-13 18:58N 30°37' E 121°21'0 0.0
2017-Jul-13 18:25N 30°37' E 121°21'0 0.1
2017-Jul-13 17:58N 30°37' E 121°21'0 0.0
2017-Jul-13 17:28N 30°37' E 121°21'0 0.0
2017-Jul-13 16:58N 30°37' E 121°21'0 0.0
2017-Jul-13 16:28N 30°37' E 121°21'0 0.1
2017-Jul-13 15:58N 30°37' E 121°21'0 0.0
2017-Jul-13 15:28N 30°37' E 121°21'0 0.1
2017-Jul-13 14:58N 30°37' E 121°21'0 0.1
2017-Jul-13 14:28N 30°37' E 121°21'0 0.2
2017-Jul-13 13:58N 30°38' E 121°21'0 0.0
2017-Jul-13 09:58N 30°37' E 121°21'  

Dump ship's entire track history